x

South Moresby (46147) Wave Buoy

6:00pm - Fri 24th Nov 2017 All times are PST. -8 hours from GMT.

  • Sig Wave height 13.4ft
  • Peak Period 10s
  • Wind
    11mph, 16mph gusts
  • Sea Temp 47°f
  • Air Temp 46°f
  • Sea Pressure 1001.9mb
  • South Moresby
  • South Moresby

More Historic Weather Station data

Upgrade to MSW Pro to gain access to the past 30 days of data for over 8000 Wavebouys and Weather Stations around the globe.

Join

Comparision Forecast

View Surf forecast
   
Fri 11/24 6:00pm 13.5ft 10s 11 16 mph 1001.9mb 47f 46f
5:00pm 13.5ft 10s 13 16 mph 1002mb 47f 46f
4:00pm 13ft 11s 20 27 mph 1001.7mb 47f 46f
3:00pm 13ft 11s 18 22 mph 1001.6mb 47f 46f
2:00pm 13ft 10s 18 22 mph 1001.4mb 47f 46f
1:00pm 13ft 10s 20 25 mph 1001.2mb 47f 46f
12:00pm 12.5ft 10s 22 27 mph 1000.9mb 47f 46f
11:00am 13ft 9s 20 25 mph 1000.7mb 47f 46f
10:00am 13ft 10s 22 34 mph 1000.1mb 47f 43f
9:00am 12ft 9s 18 22 mph 999.4mb 47f 46f
8:00am 12.5ft 10s 20 25 mph 998.8mb 47f 47f
7:00am 13ft 10s 22 27 mph 998.2mb 47f 46f
6:00am 11ft 8s 22 29 mph 997.9mb 47f 47f
5:00am 12ft 10s 18 22 mph 997.6mb 47f 46f
4:00am 12ft 10s 18 20 mph 997.5mb 47f 47f
3:00am 12ft 8s 20 27 mph 998.1mb 47f 46f
2:00am 13ft 10s 20 25 mph 998.1mb 47f 46f
1:00am 12ft 7s 27 34 mph 998.3mb 47f 48f
12:00am 10.5ft 11s 29 34 mph 998.7mb 47f 47f
Thu 11/23 11:00pm 11ft 11s 27 34 mph 999.5mb 47f 47f
10:00pm 10ft 12s 27 34 mph 1000mb 47f 47f
9:00pm 10ft 10s 25 29 mph 1000.3mb 47f 46f
8:00pm 10ft 11s 25 31 mph 1000.7mb 47f 46f
7:00pm 11ft 11s 22 27 mph 1001.1mb 47f 45f
6:00pm 13ft 10s 20 27 mph 1001.3mb 47f 45f
5:00pm 13ft 11s 22 29 mph 1001.5mb 47f 44f
4:00pm 13.5ft 11s 20 27 mph 1001.6mb 47f 46f
3:00pm 12.5ft 11s 22 27 mph 1001.9mb 47f 47f
2:00pm 11ft 11s 18 22 mph 1002mb 47f 46f
1:00pm 11ft 10s 13 18 mph 1002.1mb 47f 46f
12:00pm 10ft 11s 16 18 mph 1002.5mb 47f 47f
11:00am 10ft 11s 16 18 mph 1002.6mb 47f 46f
10:00am 9.5ft 11s 13 18 mph 1002.2mb 47f 46f
9:00am 9ft 11s 20 25 mph 1001.9mb 47f 45f
8:00am 9ft 11s 16 22 mph 1001.4mb 47f 45f
7:00am 10ft 11s 16 20 mph 1000.7mb 47f 46f
6:00am 9.5ft 11s 18 22 mph 999.9mb 47f 46f
5:00am 9ft 11s 13 18 mph 999mb 47f 47f
4:00am 9ft 11s 9 11 mph 998.6mb 47f 46f
3:00am 8ft 9s 9 13 mph 998.1mb 47f 47f
2:00am 9.5ft 10s 9 11 mph 997.2mb 47f 47f
1:00am 9ft 12s 2 4 mph 996.1mb 47f 47f
12:00am 8ft 11s 9 11 mph 995.1mb 47f 47f
Wed 11/22 11:00pm 10ft 11s 7 11 mph 995.4mb 47f 47f
10:00pm 9ft 11s 16 22 mph 994.3mb 47f 47f
9:00pm 10ft 10s 11 13 mph 994mb 47f 49f
8:00pm 11ft 11s 16 20 mph 993.4mb 47f 48f
7:00pm 10ft 12s 9 13 mph 994mb 47f 48f
6:00pm 11ft 12s 9 11 mph 993.9mb 47f 48f
5:00pm 10.5ft 11s 4 11 mph 994mb 47f 47f
4:00pm 11ft 11s 4 7 mph 994.5mb 47f 47f
3:00pm 12ft 11s 4 9 mph 993.6mb 47f 47f
2:00pm 10ft 11s 4 7 mph 994.5mb 47f 47f
1:00pm 12ft 11s 4 7 mph 995.7mb 47f 47f
12:00pm 11ft 11s 7 9 mph 996.8mb 47f 47f
11:00am 9ft 11s 11 13 mph 997.8mb 47f 48f
10:00am 9.5ft 10s 11 16 mph 997.7mb 47f 48f
9:00am 9ft 9s 7 9 mph 997.3mb 47f 48f
8:00am 9ft 10s 11 16 mph 996.3mb 47f 48f
7:00am 8.5ft 9s 9 13 mph 996mb 47f 49f
6:00am 9ft 9s 13 18 mph 995.7mb 47f 50f
5:00am 8ft 9s 18 22 mph 994.9mb 47f 51f
4:00am 8ft 10s 18 22 mph 995mb 47f 51f
3:00am 9ft 8s 16 20 mph 995mb 47f 50f
2:00am 10ft 10s 16 20 mph 995.6mb 47f 50f
Tue 11/21 6:00pm 15.5ft 11s 31 40 mph 994.1mb 47f 44f
4:00pm 15ft 11s 36 45 mph 994.4mb 47f 43f
3:00pm 13.5ft 9s 36 43 mph 995.3mb 47f 42f
2:00pm 13ft 11s 34 40 mph 996.5mb 47f 43f
1:00pm 13ft 8s 31 38 mph 997.9mb 47f 44f
12:00pm 13ft 9s 31 40 mph 999.7mb 47f 44f
11:00am 13ft 11s 29 36 mph 1001.7mb 47f 44f
10:00am 12.5ft 14s 29 36 mph 1003.2mb 47f 46f
9:00am 12ft 11s 29 38 mph 1004.6mb 47f 46f
8:00am 11ft 15s 29 36 mph 1005.6mb 47f 46f
7:00am 11.5ft 14s 27 36 mph 1006.9mb 47f 46f
6:00am 11ft 8s 25 31 mph 1007.6mb 47f 46f
5:00am 10ft 9s 22 29 mph 1009.2mb 47f 46f
4:00am 9.5ft 8s 25 34 mph 1009.5mb 47f 48f